Time;durP1;ratioP1;P1;durP2;ratioP2;P2;SDS_P1;SDS_P2;PMS_P1;PMS_P2;Temp;Humidity;BMP_temperature;BMP_pressure;BME280_temperature;BME280_humidity;BME280_pressure;Samples;Min_cycle;Max_cycle;Signal;HPM_P1;HPM_P2
2022/04/03 00:00:13;;;;;;;10.63;3.85;;;0.60;99.90;;;;;;5073949;28;20128;-67
2022/04/03 00:02:39;;;;;;;8.73;3.60;;;0.60;99.90;;;;;;5073957;28;20048;-67
2022/04/03 00:05:06;;;;;;;8.48;3.80;;;2.20;99.90;;;;;;5073760;28;20051;-68
2022/04/03 00:07:32;;;;;;;9.43;4.60;;;0.60;99.90;;;;;;5064719;28;20040;-67
2022/04/03 00:09:58;;;;;;;10.57;4.30;;;0.70;99.90;;;;;;5074235;28;20127;-67
2022/04/03 00:12:24;;;;;;;7.90;4.20;;;0.70;99.90;;;;;;5073091;28;20039;-69
2022/04/03 00:14:50;;;;;;;7.78;4.50;;;1.10;99.90;;;;;;5049520;28;20044;-68
2022/04/03 00:17:16;;;;;;;8.85;4.40;;;0.60;99.90;;;;;;5074090;28;20048;-67
2022/04/03 00:19:42;;;;;;;10.30;4.35;;;0.60;99.90;;;;;;5063822;28;20479;-68
2022/04/03 00:22:08;;;;;;;8.07;3.95;;;0.60;99.90;;;;;;5073742;28;20051;-67
2022/04/03 00:24:34;;;;;;;7.68;3.83;;;0.60;99.90;;;;;;5065960;28;20040;-66
2022/04/03 00:27:00;;;;;;;7.50;3.22;;;0.60;99.90;;;;;;5065296;28;20528;-67
2022/04/03 00:29:25;;;;;;;6.93;3.35;;;0.60;99.90;;;;;;5041859;28;20050;-67
2022/04/03 00:31:51;;;;;;;8.68;3.83;;;0.60;99.90;;;;;;5068119;28;20040;-68
2022/04/03 00:34:17;;;;;;;8.30;3.53;;;0.60;99.90;;;;;;5073627;28;20059;-67
2022/04/03 00:36:43;;;;;;;6.47;2.92;;;0.60;99.90;;;;;;5062054;28;20105;-67
2022/04/03 00:39:08;;;;;;;4.60;2.88;;;0.50;99.90;;;;;;5073261;28;20093;-67
2022/04/03 00:41:36;;;;;;;5.82;3.00;;;0.50;99.90;;;;;;5069999;28;20127;-68
2022/04/03 00:44:02;;;;;;;5.90;3.27;;;0.50;99.90;;;;;;5072619;28;20036;-67
2022/04/03 00:46:29;;;;;;;6.93;3.35;;;0.40;99.90;;;;;;5043278;28;20297;-66
2022/04/03 00:48:57;;;;;;;5.22;2.83;;;0.40;99.90;;;;;;5084075;28;20239;-68
2022/04/03 00:51:23;;;;;;;7.95;3.80;;;0.30;99.90;;;;;;5055505;28;20367;-68
2022/04/03 00:53:48;;;;;;;7.50;3.30;;;0.20;99.90;;;;;;5076631;28;20045;-67
2022/04/03 00:56:14;;;;;;;7.80;3.53;;;0.20;99.90;;;;;;5072932;28;20045;-67
2022/04/03 00:58:40;;;;;;;4.75;2.80;;;0.20;99.90;;;;;;5045576;28;20128;-67
2022/04/03 01:01:06;;;;;;;5.15;2.67;;;0.20;99.90;;;;;;5072730;28;20394;-68
2022/04/03 01:03:32;;;;;;;9.48;3.22;;;0.20;99.90;;;;;;5071760;28;20047;-66
2022/04/03 01:05:57;;;;;;;5.72;2.50;;;0.20;99.90;;;;;;5072763;28;20087;-68
2022/04/03 01:08:24;;;;;;;6.93;2.80;;;0.10;99.90;;;;;;5071038;28;20033;-67
2022/04/03 01:10:50;;;;;;;5.20;2.55;;;0.10;99.90;;;;;;5072066;28;20464;-68
2022/04/03 01:13:16;;;;;;;9.48;3.92;;;0.10;99.90;;;;;;5048659;28;20044;-67
2022/04/03 01:15:42;;;;;;;9.38;3.22;;;0.10;99.90;;;;;;5052441;28;20494;-67
2022/04/03 01:18:08;;;;;;;7.78;3.08;;;0.00;99.90;;;;;;5071779;28;20097;-67
2022/04/03 01:20:35;;;;;;;7.72;3.10;;;0.00;99.90;;;;;;5067872;28;20070;-66
2022/04/03 01:23:03;;;;;;;5.57;3.22;;;-0.10;99.90;;;;;;5054274;28;20139;-67
2022/04/03 01:25:30;;;;;;;10.07;3.35;;;-0.10;99.90;;;;;;5052210;28;20131;-66
2022/04/03 01:27:57;;;;;;;4.22;2.53;;;-0.10;99.90;;;;;;5071104;28;20124;-68
2022/04/03 01:30:22;;;;;;;7.63;2.90;;;-0.10;99.90;;;;;;5071218;28;20052;-68
2022/04/03 01:32:48;;;;;;;4.80;3.10;;;-0.10;99.90;;;;;;5042325;28;20072;-67
2022/04/03 01:35:14;;;;;;;8.25;3.40;;;0.30;99.90;;;;;;5035594;28;20101;-67
2022/04/03 01:37:39;;;;;;;5.35;2.67;;;0.00;99.90;;;;;;5047623;28;20083;-67
2022/04/03 01:40:08;;;;;;;8.30;3.35;;;0.00;99.90;;;;;;5032482;28;20040;-68
2022/04/03 01:42:34;;;;;;;7.78;3.90;;;0.00;99.90;;;;;;5049693;28;20106;-67
2022/04/03 01:44:59;;;;;;;7.07;3.53;;;0.00;99.90;;;;;;5049292;28;20037;-66
2022/04/03 01:47:25;;;;;;;9.88;4.00;;;0.00;99.90;;;;;;5066565;28;20363;-67
2022/04/03 01:49:51;;;;;;;4.75;3.30;;;0.00;99.90;;;;;;5065335;28;20109;-68
2022/04/03 01:52:16;;;;;;;8.20;3.65;;;0.10;99.90;;;;;;5076196;28;20051;-68
2022/04/03 01:54:42;;;;;;;7.18;3.63;;;0.10;99.90;;;;;;5070613;28;20386;-67
2022/04/03 01:57:08;;;;;;;7.07;3.35;;;0.20;99.90;;;;;;5071427;28;20033;-67
2022/04/03 01:59:34;;;;;;;4.65;3.10;;;0.40;99.90;;;;;;5053869;28;20040;-67
2022/04/03 02:02:00;;;;;;;8.52;3.53;;;0.30;99.90;;;;;;5053889;28;20041;-67
2022/04/03 02:04:25;;;;;;;9.60;3.15;;;0.40;99.90;;;;;;5071320;28;20047;-67
2022/04/03 02:06:51;;;;;;;6.45;3.15;;;0.50;99.90;;;;;;5070507;28;20092;-68
2022/04/03 02:09:19;;;;;;;7.55;3.13;;;0.60;99.90;;;;;;5071398;28;20103;-67
2022/04/03 02:11:45;;;;;;;6.97;3.28;;;0.80;99.90;;;;;;5065538;28;20029;-67
2022/04/03 02:14:11;;;;;;;7.00;2.80;;;0.70;99.90;;;;;;5071762;28;20570;-67
2022/04/03 02:16:36;;;;;;;8.25;3.15;;;0.80;99.90;;;;;;5070891;28;20041;-67
2022/04/03 02:19:03;;;;;;;4.63;2.70;;;0.90;99.90;;;;;;5071846;28;20403;-66
2022/04/03 02:21:29;;;;;;;5.40;2.83;;;0.90;99.90;;;;;;5033149;28;20476;-67
2022/04/03 02:23:55;;;;;;;4.25;2.80;;;1.00;99.90;;;;;;5062970;28;20121;-67
2022/04/03 02:26:20;;;;;;;6.00;2.97;;;1.10;99.90;;;;;;5053744;28;20071;-67
2022/04/03 02:28:46;;;;;;;6.18;2.92;;;1.10;99.90;;;;;;5069504;28;20075;-68
2022/04/03 02:31:12;;;;;;;6.10;3.03;;;1.10;99.90;;;;;;5071125;28;20105;-67
2022/04/03 02:33:37;;;;;;;4.22;2.70;;;1.20;99.90;;;;;;5070997;28;20052;-67
2022/04/03 02:36:03;;;;;;;5.28;2.88;;;1.30;99.90;;;;;;5064747;28;20060;-67
2022/04/03 02:38:29;;;;;;;4.82;2.42;;;1.30;99.90;;;;;;5069390;28;20123;-67
2022/04/03 02:40:54;;;;;;;5.65;2.63;;;-0.30;99.90;;;;;;5071288;28;20124;-66
2022/04/03 02:43:20;;;;;;;5.90;2.83;;;1.40;99.90;;;;;;5059886;28;20036;-68
2022/04/03 02:45:45;;;;;;;4.30;2.50;;;1.60;99.90;;;;;;5053332;28;20068;-66
2022/04/03 02:48:11;;;;;;;7.20;3.30;;;1.50;99.90;;;;;;5070771;28;20053;-66
2022/04/03 02:50:37;;;;;;;4.72;2.65;;;2.10;99.90;;;;;;5059899;28;20048;-67
2022/04/03 02:53:03;;;;;;;7.50;2.55;;;1.60;99.90;;;;;;5051638;28;20035;-67
2022/04/03 02:55:29;;;;;;;8.63;2.47;;;1.60;99.90;;;;;;5067962;28;20094;-67
2022/04/03 02:57:55;;;;;;;3.65;1.45;;;1.60;99.90;;;;;;5052768;28;20043;-68
2022/04/03 03:00:21;;;;;;;7.72;2.20;;;1.60;99.90;;;;;;5069386;28;20548;-68
2022/04/03 03:02:48;;;;;;;6.80;2.15;;;1.40;99.90;;;;;;5070771;28;20131;-68
2022/04/03 03:05:14;;;;;;;3.80;1.85;;;1.40;99.90;;;;;;5067824;28;20040;-68
2022/04/03 03:07:42;;;;;;;5.03;1.85;;;1.40;99.90;;;;;;5070952;28;20043;-68
2022/04/03 03:10:12;;;;;;;3.70;1.38;;;1.40;99.90;;;;;;5078247;28;20048;-68
2022/04/03 03:12:37;;;;;;;2.70;1.42;;;1.30;99.90;;;;;;5068059;28;20080;-69
2022/04/03 03:15:04;;;;;;;3.40;1.58;;;1.30;99.90;;;;;;5070748;28;20033;-70
2022/04/03 03:17:30;;;;;;;6.05;1.50;;;1.20;99.90;;;;;;5069197;28;20056;-68
2022/04/03 03:19:56;;;;;;;6.38;1.95;;;1.20;99.90;;;;;;5070946;28;20037;-69
2022/04/03 03:22:22;;;;;;;3.63;1.40;;;1.20;99.90;;;;;;5055615;28;20104;-69
2022/04/03 03:24:47;;;;;;;3.30;1.17;;;1.10;99.90;;;;;;5074119;28;20044;-70
2022/04/03 03:27:13;;;;;;;2.78;1.42;;;1.10;99.90;;;;;;5073796;28;20040;-70
2022/04/03 03:29:38;;;;;;;3.13;1.40;;;1.10;99.90;;;;;;5056656;28;20044;-70
2022/04/03 03:32:08;;;;;;;3.35;1.45;;;1.10;99.90;;;;;;5074739;28;20091;-70
2022/04/03 03:34:34;;;;;;;5.00;2.20;;;1.10;99.90;;;;;;5042720;28;20041;-70
2022/04/03 03:37:01;;;;;;;6.25;2.70;;;1.10;99.90;;;;;;5048360;28;20044;-70
2022/04/03 03:39:27;;;;;;;4.65;2.30;;;1.10;99.90;;;;;;5074592;28;20040;-70
2022/04/03 03:41:55;;;;;;;9.55;3.13;;;1.10;99.90;;;;;;5074035;28;20507;-70
2022/04/03 03:44:22;;;;;;;5.95;3.00;;;1.10;99.90;;;;;;5077823;28;20437;-70
2022/04/03 03:46:47;;;;;;;5.07;2.47;;;1.10;99.90;;;;;;5074544;28;20070;-70
2022/04/03 03:49:16;;;;;;;5.65;2.50;;;1.00;99.90;;;;;;5054115;28;20493;-70
2022/04/03 03:51:42;;;;;;;4.68;2.10;;;1.00;99.90;;;;;;5040023;28;20037;-70
2022/04/03 03:54:08;;;;;;;4.10;2.10;;;1.00;99.90;;;;;;5056800;28;20040;-70
2022/04/03 03:56:34;;;;;;;3.47;2.03;;;2.20;99.90;;;;;;5076543;28;20039;-70
2022/04/03 03:59:05;;;;;;;6.00;1.88;;;1.00;99.90;;;;;;5071819;28;20043;-70
2022/04/03 04:01:31;;;;;;;5.93;2.75;;;0.90;99.90;;;;;;5055518;28;20054;-70
2022/04/03 04:03:56;;;;;;;6.43;2.35;;;0.90;99.90;;;;;;5055861;28;20041;-69
2022/04/03 04:06:22;;;;;;;4.93;1.92;;;0.90;99.90;;;;;;5067441;28;20075;-70
2022/04/03 04:08:48;;;;;;;5.00;2.60;;;0.80;99.90;;;;;;5063612;28;20029;-69
2022/04/03 04:11:13;;;;;;;7.57;2.40;;;0.80;99.90;;;;;;5058923;28;20033;-70
2022/04/03 04:13:39;;;;;;;7.15;2.55;;;0.80;99.90;;;;;;5072046;28;20398;-70
2022/04/03 04:16:05;;;;;;;9.43;2.22;;;0.70;99.90;;;;;;5073187;28;20048;-70
2022/04/03 04:18:31;;;;;;;4.13;2.15;;;0.70;99.90;;;;;;5055745;28;20131;-69
2022/04/03 04:20:57;;;;;;;3.47;2.00;;;0.80;99.90;;;;;;5058031;28;20052;-70
2022/04/03 04:23:23;;;;;;;4.28;2.38;;;0.80;99.90;;;;;;5055638;28;20527;-69
2022/04/03 04:25:52;;;;;;;6.65;2.10;;;0.90;99.90;;;;;;5073794;28;20482;-70
2022/04/03 04:28:17;;;;;;;6.45;2.38;;;0.90;99.90;;;;;;5054227;28;20103;-70
2022/04/03 04:30:43;;;;;;;10.38;2.17;;;0.90;99.90;;;;;;5036957;28;20475;-70
2022/04/03 04:33:09;;;;;;;5.70;2.75;;;0.90;99.90;;;;;;5067574;28;20048;-70
2022/04/03 04:35:35;;;;;;;5.40;2.35;;;1.00;99.90;;;;;;5055923;28;20075;-70
2022/04/03 04:38:02;;;;;;;6.75;2.50;;;0.80;99.90;;;;;;5062675;28;20041;-69
2022/04/03 04:40:28;;;;;;;4.00;2.20;;;0.80;99.90;;;;;;5055380;28;20080;-69
2022/04/03 04:42:55;;;;;;;5.47;2.50;;;0.70;99.90;;;;;;5072538;28;20033;-70
2022/04/03 04:45:21;;;;;;;3.70;2.40;;;0.70;99.90;;;;;;5073072;28;20063;-70
2022/04/03 04:47:48;;;;;;;5.30;2.60;;;0.60;99.90;;;;;;5045290;28;20079;-69
2022/04/03 04:50:14;;;;;;;3.25;1.95;;;0.60;99.90;;;;;;5072128;28;20028;-69
2022/04/03 04:52:41;;;;;;;7.22;2.85;;;0.60;99.90;;;;;;5044086;28;20052;-69
2022/04/03 04:55:09;;;;;;;4.15;2.60;;;0.60;99.90;;;;;;5060589;28;20044;-69
2022/04/03 04:57:36;;;;;;;4.10;2.47;;;0.60;99.90;;;;;;5071772;28;20066;-70
2022/04/03 05:00:07;;;;;;;5.00;2.28;;;0.60;99.90;;;;;;5049323;28;20048;-69
2022/04/03 05:02:32;;;;;;;4.13;2.67;;;0.60;99.90;;;;;;5069460;28;20446;-70
2022/04/03 05:04:58;;;;;;;4.55;2.67;;;0.50;99.90;;;;;;5055080;28;20036;-69
2022/04/03 05:07:24;;;;;;;4.90;2.55;;;2.10;99.90;;;;;;5054688;28;20509;-69
2022/04/03 05:09:54;;;;;;;5.13;2.60;;;0.50;99.90;;;;;;5068360;28;20089;-70
2022/04/03 05:12:20;;;;;;;5.53;2.80;;;2.00;99.90;;;;;;5055002;28;20047;-70
2022/04/03 05:14:47;;;;;;;8.27;3.20;;;0.60;99.90;;;;;;5066675;28;20055;-69
2022/04/03 05:17:13;;;;;;;5.43;3.13;;;0.60;99.90;;;;;;5048436;28;20185;-69
2022/04/03 05:19:40;;;;;;;8.18;2.85;;;1.30;99.90;;;;;;5072987;28;20041;-69
2022/04/03 05:22:06;;;;;;;6.32;3.10;;;0.60;99.90;;;;;;5072985;28;20125;-69
2022/04/03 05:24:32;;;;;;;6.75;2.92;;;0.60;99.90;;;;;;5072120;28;20064;-70
2022/04/03 05:26:57;;;;;;;10.57;3.58;;;0.60;99.90;;;;;;5066488;28;20044;-68
2022/04/03 05:29:23;;;;;;;9.10;3.40;;;0.70;99.90;;;;;;5052591;28;20044;-70
2022/04/03 05:31:49;;;;;;;6.18;3.20;;;0.70;99.90;;;;;;5048226;28;20125;-70
2022/04/03 05:34:15;;;;;;;9.13;2.63;;;0.80;99.90;;;;;;5070764;28;20083;-70
2022/04/03 05:36:40;;;;;;;5.10;3.10;;;0.90;99.90;;;;;;5072361;28;20127;-69
2022/04/03 05:39:06;;;;;;;8.30;2.63;;;0.90;99.90;;;;;;5054291;28;20138;-69
2022/04/03 05:41:33;;;;;;;12.40;2.90;;;0.90;99.90;;;;;;5067716;28;20407;-69
2022/04/03 05:43:59;;;;;;;5.70;2.60;;;0.90;99.90;;;;;;5068325;28;20075;-69
2022/04/03 05:46:25;;;;;;;11.63;3.20;;;0.90;99.90;;;;;;5068991;28;20494;-69
2022/04/03 05:48:51;;;;;;;5.35;3.00;;;0.90;99.90;;;;;;5072223;28;20143;-70
2022/04/03 05:51:16;;;;;;;6.78;3.25;;;0.90;99.90;;;;;;5071658;28;20071;-69
2022/04/03 05:53:42;;;;;;;6.43;3.17;;;1.00;99.90;;;;;;5050235;28;20064;-69
2022/04/03 05:56:09;;;;;;;7.85;3.00;;;1.00;99.90;;;;;;5051577;28;20738;-68
2022/04/03 05:58:35;;;;;;;6.05;3.40;;;1.00;99.90;;;;;;5073168;28;20040;-69
2022/04/03 06:01:00;;;;;;;8.80;2.92;;;1.10;99.90;;;;;;5072581;28;20052;-69
2022/04/03 06:03:26;;;;;;;6.53;3.30;;;1.20;99.90;;;;;;5053693;28;20470;-68
2022/04/03 06:05:52;;;;;;;7.68;3.58;;;1.30;99.90;;;;;;5072666;28;20139;-69
2022/04/03 06:08:18;;;;;;;8.93;3.25;;;1.40;99.90;;;;;;5071329;28;20047;-69
2022/04/03 06:10:44;;;;;;;6.28;3.30;;;1.60;99.90;;;;;;5054166;28;20061;-69
2022/04/03 06:13:13;;;;;;;6.22;3.10;;;1.80;99.90;;;;;;5070497;28;20039;-69
2022/04/03 06:15:45;;;;;;;6.15;2.83;;;2.00;99.90;;;;;;5054375;28;20068;-69
2022/04/03 06:18:15;;;;;;;5.85;2.53;;;1.90;99.90;;;;;;5072436;28;20051;-70
2022/04/03 06:20:41;;;;;;;10.27;2.80;;;2.00;99.90;;;;;;5062879;28;20090;-70
2022/04/03 06:23:11;;;;;;;4.78;2.60;;;2.00;99.90;;;;;;5054903;28;20040;-70
2022/04/03 06:25:37;;;;;;;8.13;2.67;;;2.10;99.90;;;;;;5073050;28;20041;-69
2022/04/03 06:28:06;;;;;;;7.22;2.55;;;2.10;99.90;;;;;;5053650;28;20090;-69
2022/04/03 06:30:32;;;;;;;4.68;2.10;;;2.10;99.90;;;;;;5069010;28;20041;-70
2022/04/03 06:32:57;;;;;;;7.70;2.17;;;2.10;99.90;;;;;;5075903;28;20405;-70
2022/04/03 06:35:23;;;;;;;6.28;2.28;;;2.20;99.90;;;;;;5053643;28;20090;-70
2022/04/03 06:37:49;;;;;;;3.10;2.22;;;2.20;99.90;;;;;;5059394;28;20037;-71
2022/04/03 06:40:16;;;;;;;6.13;2.08;;;2.20;99.90;;;;;;5065490;28;20033;-70
2022/04/03 06:42:43;;;;;;;5.05;1.90;;;2.40;99.90;;;;;;5031941;28;20053;-69
2022/04/03 06:45:10;;;;;;;10.18;2.28;;;2.60;99.90;;;;;;5071178;28;20033;-70
2022/04/03 06:47:36;;;;;;;7.40;2.08;;;2.80;99.90;;;;;;5067712;28;20088;-70
2022/04/03 06:50:04;;;;;;;4.20;1.83;;;2.90;99.90;;;;;;5070850;28;20418;-70
2022/04/03 06:52:29;;;;;;;3.72;1.58;;;3.30;99.90;;;;;;5070977;28;20095;-69
2022/04/03 06:54:58;;;;;;;9.20;2.42;;;3.60;99.90;;;;;;5052276;28;20523;-70
2022/04/03 06:57:23;;;;;;;6.03;1.75;;;3.90;99.90;;;;;;5073393;28;20616;-70
2022/04/03 06:59:49;;;;;;;3.30;1.60;;;4.10;99.90;;;;;;5058381;28;20060;-69
2022/04/03 07:02:15;;;;;;;4.50;1.70;;;4.40;99.90;;;;;;5057164;28;20040;-69
2022/04/03 07:04:41;;;;;;;4.20;1.40;;;4.80;99.90;;;;;;5075025;28;20038;-69
2022/04/03 07:07:06;;;;;;;6.85;1.52;;;5.30;99.90;;;;;;5039934;28;20045;-69
2022/04/03 07:09:37;;;;;;;3.25;1.63;;;5.60;99.90;;;;;;5039145;28;20498;-69
2022/04/03 07:12:03;;;;;;;6.75;1.52;;;5.80;99.90;;;;;;5073566;28;20032;-69
2022/04/03 07:14:29;;;;;;;4.05;1.73;;;6.10;99.90;;;;;;5041578;28;20375;-68
2022/04/03 07:16:55;;;;;;;3.83;1.70;;;6.40;99.90;;;;;;5058650;28;20051;-68
2022/04/03 07:19:20;;;;;;;4.13;1.52;;;7.70;99.90;;;;;;5069269;28;20402;-69
2022/04/03 07:21:46;;;;;;;3.50;1.40;;;6.50;99.90;;;;;;5055804;28;20098;-69
2022/04/03 07:24:12;;;;;;;5.10;1.30;;;6.50;99.90;;;;;;5056751;28;20044;-69
2022/04/03 07:26:37;;;;;;;3.55;1.60;;;6.40;99.90;;;;;;5080479;28;20460;-68
2022/04/03 07:29:03;;;;;;;3.90;1.30;;;6.20;99.90;;;;;;5061222;28;20123;-68
2022/04/03 07:31:29;;;;;;;4.78;1.40;;;6.00;99.90;;;;;;5056802;28;20086;-69
2022/04/03 07:33:55;;;;;;;3.83;1.17;;;5.80;99.90;;;;;;5055062;28;20059;-68
2022/04/03 07:36:21;;;;;;;3.97;1.13;;;6.90;99.90;;;;;;5075918;28;20117;-68
2022/04/03 07:38:47;;;;;;;2.55;0.90;;;5.80;99.90;;;;;;5073594;28;20470;-68
2022/04/03 07:41:12;;;;;;;1.92;0.75;;;5.80;99.90;;;;;;5074654;28;20075;-69
2022/04/03 07:43:38;;;;;;;1.08;0.85;;;5.80;99.90;;;;;;5053010;28;20175;-68
2022/04/03 07:46:04;;;;;;;2.35;0.80;;;6.00;99.90;;;;;;5055380;28;20067;-69
2022/04/03 07:48:29;;;;;;;2.83;0.90;;;6.00;99.90;;;;;;5077277;28;20057;-69
2022/04/03 07:50:56;;;;;;;3.83;1.25;;;6.10;99.90;;;;;;5074337;28;20036;-69
2022/04/03 07:53:21;;;;;;;3.15;1.13;;;6.30;99.90;;;;;;5053736;28;20041;-69
2022/04/03 07:55:47;;;;;;;1.73;1.00;;;6.30;99.90;;;;;;5058139;28;20078;-69
2022/04/03 07:58:14;;;;;;;3.38;1.10;;;6.40;99.90;;;;;;5072568;28;20064;-69
2022/04/03 08:00:40;;;;;;;3.75;1.00;;;6.50;99.90;;;;;;5073171;28;20069;-69
2022/04/03 08:03:05;;;;;;;3.65;1.15;;;6.60;99.90;;;;;;5073841;28;20033;-68
2022/04/03 08:05:31;;;;;;;1.65;1.10;;;6.70;99.90;;;;;;5068773;28;20466;-68
2022/04/03 08:07:57;;;;;;;2.78;1.08;;;6.90;99.90;;;;;;5068802;28;20044;-69
2022/04/03 08:10:23;;;;;;;2.13;1.20;;;7.00;99.90;;;;;;5056275;28;20414;-68
2022/04/03 08:12:50;;;;;;;5.30;1.55;;;7.00;99.90;;;;;;5037661;28;20098;-69
2022/04/03 08:15:17;;;;;;;6.82;1.40;;;7.70;99.90;;;;;;5038940;28;20037;-70
2022/04/03 08:17:43;;;;;;;5.53;1.70;;;7.10;99.90;;;;;;5054703;28;20079;-70
2022/04/03 08:20:19;;;;;;;4.03;1.40;;;7.30;99.90;;;;;;5074206;28;20080;-69
2022/04/03 08:22:46;;;;;;;5.47;1.45;;;7.40;99.90;;;;;;5090312;28;20120;-69
2022/04/03 08:25:12;;;;;;;4.07;1.60;;;7.50;99.90;;;;;;5068748;28;20041;-69
2022/04/03 08:27:44;;;;;;;2.92;1.10;;;7.60;99.90;;;;;;5055305;28;20111;-69
2022/04/03 08:30:13;;;;;;;5.22;2.10;;;7.50;99.90;;;;;;5071233;28;20051;-69
2022/04/03 08:32:39;;;;;;;8.25;1.50;;;7.30;99.90;;;;;;5043646;28;20068;-69
2022/04/03 08:35:05;;;;;;;4.32;1.40;;;7.20;99.90;;;;;;5054742;28;20432;-69
2022/04/03 08:37:31;;;;;;;5.88;1.52;;;7.00;99.90;;;;;;5058811;28;20040;-68
2022/04/03 08:39:56;;;;;;;6.90;1.52;;;6.90;99.90;;;;;;5071340;28;20105;-69
2022/04/03 08:42:22;;;;;;;4.47;1.30;;;5.40;99.90;;;;;;5040737;28;20131;-69
2022/04/03 08:44:48;;;;;;;7.72;1.73;;;7.00;99.90;;;;;;5071143;28;20041;-69
2022/04/03 08:47:17;;;;;;;3.00;1.20;;;7.20;99.90;;;;;;5072177;28;20033;-69
2022/04/03 08:49:44;;;;;;;3.15;1.25;;;7.50;99.90;;;;;;5052649;28;20550;-68
2022/04/03 08:52:12;;;;;;;3.30;1.15;;;7.80;99.90;;;;;;5058156;28;20068;-68
2022/04/03 08:54:39;;;;;;;2.75;1.02;;;8.00;99.90;;;;;;5072871;28;20051;-69
2022/04/03 08:57:05;;;;;;;6.07;1.15;;;8.10;99.90;;;;;;5062393;28;20074;-68
2022/04/03 08:59:31;;;;;;;6.18;1.02;;;8.30;99.90;;;;;;5046145;28;20508;-67
2022/04/03 09:01:56;;;;;;;3.50;1.10;;;8.40;99.90;;;;;;5066727;28;20048;-69
2022/04/03 09:04:22;;;;;;;4.35;1.20;;;8.60;99.90;;;;;;5057212;28;20052;-69
2022/04/03 09:06:56;;;;;;;4.47;1.20;;;8.50;99.90;;;;;;5046507;28;20375;-68
2022/04/03 09:09:22;;;;;;;3.92;1.30;;;8.50;99.90;;;;;;5049138;28;20171;-68
2022/04/03 09:12:18;;;;;;;4.20;1.38;;;8.50;99.90;;;;;;5065774;28;20041;-67
2022/04/03 09:14:51;;;;;;;3.80;1.20;;;8.10;99.90;;;;;;5048956;28;20048;-69
2022/04/03 09:17:38;;;;;;;2.28;0.90;;;7.80;99.90;;;;;;5068760;28;20102;-68
2022/04/03 09:20:06;;;;;;;4.22;1.48;;;7.50;99.90;;;;;;5066487;28;20044;-68
2022/04/03 09:22:35;;;;;;;2.08;1.20;;;7.20;99.90;;;;;;5051331;28;20590;-68
2022/04/03 09:25:11;;;;;;;4.78;1.35;;;7.40;99.90;;;;;;5055671;28;20497;-68
2022/04/03 09:27:49;;;;;;;3.03;1.10;;;7.80;99.90;;;;;;5032854;28;20049;-68
2022/04/03 09:30:16;;;;;;;1.87;0.80;;;8.20;99.90;;;;;;5051210;28;20063;-68
2022/04/03 09:32:57;;;;;;;3.33;0.90;;;8.60;99.90;;;;;;5049358;28;20152;-67
2022/04/03 09:35:31;;;;;;;2.58;0.88;;;8.60;99.90;;;;;;5076862;28;20410;-68
2022/04/03 09:38:11;;;;;;;2.65;0.82;;;8.40;99.90;;;;;;5071460;28;20040;-66
2022/04/03 09:40:39;;;;;;;1.90;0.70;;;8.60;99.90;;;;;;5063138;28;20147;-68
2022/04/03 09:43:23;;;;;;;3.85;0.73;;;8.80;99.60;;;;;;5053014;28;20131;-67
2022/04/03 09:45:54;;;;;;;3.85;1.17;;;8.50;99.80;;;;;;5065768;28;20036;-67
2022/04/03 09:48:27;;;;;;;4.28;1.10;;;8.30;99.90;;;;;;5050341;28;20048;-68
2022/04/03 09:51:12;;;;;;;3.30;0.88;;;8.40;99.90;;;;;;5068877;28;20150;-67
2022/04/03 09:53:45;;;;;;;2.17;0.60;;;8.80;99.90;;;;;;5062386;28;20059;-69
2022/04/03 09:56:13;;;;;;;1.98;0.77;;;9.20;98.30;;;;;;5061158;28;20127;-68
2022/04/03 09:58:51;;;;;;;;;;;9.20;97.90;;;;;;5069236;28;20071;-68
2022/04/03 10:01:26;;;;;;;5.07;1.30;;;9.00;97.00;;;;;;5052628;28;20388;-68
2022/04/03 10:03:53;;;;;;;1.63;0.82;;;9.10;98.40;;;;;;5038361;28;20080;-68
2022/04/03 10:06:24;;;;;;;4.10;1.30;;;9.50;99.90;;;;;;5067541;28;20036;-68
2022/04/03 10:08:50;;;;;;;3.05;0.82;;;9.80;98.80;;;;;;5052712;28;20048;-67
2022/04/03 10:11:17;;;;;;;2.70;1.10;;;9.90;96.50;;;;;;5050636;28;20068;-68
2022/04/03 10:13:43;;;;;;;2.67;0.93;;;9.80;96.80;;;;;;5067806;28;20048;-67
2022/04/03 10:16:10;;;;;;;3.25;1.10;;;9.60;96.80;;;;;;5049984;28;20080;-66
2022/04/03 10:18:37;;;;;;;1.60;1.25;;;10.30;97.60;;;;;;5066502;28;20082;-67
2022/04/03 10:21:04;;;;;;;2.55;1.00;;;10.10;99.00;;;;;;5067176;28;20383;-68
2022/04/03 10:23:31;;;;;;;3.77;1.60;;;10.00;98.90;;;;;;5068037;28;20041;-67
2022/04/03 10:25:57;;;;;;;8.32;1.33;;;9.80;98.70;;;;;;5053969;28;20041;-67
2022/04/03 10:28:24;;;;;;;2.20;1.02;;;9.70;99.40;;;;;;5048194;28;20063;-68
2022/04/03 10:31:06;;;;;;;2.03;1.15;;;9.90;99.90;;;;;;5030461;28;20426;-68
2022/04/03 10:33:37;;;;;;;4.18;1.20;;;10.40;99.90;;;;;;5065715;28;20071;-68
2022/04/03 10:36:05;;;;;;;4.22;1.05;;;11.00;99.10;;;;;;5058170;28;20523;-67
2022/04/03 10:38:38;;;;;;;3.50;1.10;;;11.60;99.90;;;;;;5064411;28;20414;-67
2022/04/03 10:41:06;;;;;;;2.72;1.30;;;12.10;97.10;;;;;;5057657;28;20098;-68
2022/04/03 10:43:38;;;;;;;3.58;1.33;;;12.70;98.20;;;;;;5067316;28;20509;-67
2022/04/03 10:46:04;;;;;;;4.95;1.48;;;12.50;92.10;;;;;;5066639;28;20549;-68
2022/04/03 10:48:31;;;;;;;8.35;1.40;;;11.90;92.00;;;;;;5030256;28;20131;-67
2022/04/03 10:51:04;;;;;;;3.10;0.98;;;11.50;91.10;;;;;;5046397;28;20084;-67
2022/04/03 10:53:32;;;;;;;1.52;0.90;;;10.80;93.20;;;;;;5030569;28;20107;-69
2022/04/03 10:56:02;;;;;;;3.15;1.17;;;10.10;96.40;;;;;;5056457;28;20045;-66
2022/04/03 10:58:39;;;;;;;5.20;1.10;;;9.30;98.30;;;;;;5067144;28;20497;-68
2022/04/03 11:01:05;;;;;;;2.85;0.90;;;8.70;99.90;;;;;;5045226;28;20045;-68
2022/04/03 11:03:32;;;;;;;3.28;0.90;;;8.10;99.90;;;;;;5054631;28;20040;-67
2022/04/03 11:06:18;;;;;;;3.50;0.90;;;7.80;99.90;;;;;;5042794;28;20053;-67
2022/04/03 11:08:53;;;;;;;3.13;1.05;;;7.40;99.90;;;;;;5047939;28;20146;-67
2022/04/03 11:11:36;;;;;;;5.57;0.80;;;7.30;99.90;;;;;;5034306;28;20052;-68
2022/04/03 11:14:04;;;;;;;5.15;0.90;;;7.40;99.90;;;;;;5063357;28;20044;-68
2022/04/03 11:16:50;;;;;;;5.13;1.00;;;7.40;99.90;;;;;;5066778;28;20055;-67
2022/04/03 11:19:43;;;;;;;2.08;1.13;;;7.60;99.90;;;;;;5067765;28;20053;-66
2022/04/03 11:22:13;;;;;;;3.35;1.20;;;7.90;99.90;;;;;;5028333;28;20106;-67
2022/04/03 11:24:39;;;;;;;2.42;1.00;;;8.20;99.90;;;;;;5067587;28;20464;-67
2022/04/03 11:27:06;;;;;;;2.85;1.15;;;8.30;99.90;;;;;;5065123;28;20065;-67
2022/04/03 11:29:33;;;;;;;5.32;1.17;;;8.60;99.90;;;;;;5061176;28;20060;-67
2022/04/03 11:32:04;;;;;;;3.35;1.23;;;8.80;99.90;;;;;;5049688;28;20068;-67
2022/04/03 11:34:33;;;;;;;2.03;1.08;;;8.90;99.90;;;;;;5046057;28;20049;-67
2022/04/03 11:37:01;;;;;;;3.88;1.00;;;8.90;99.90;;;;;;5067539;28;20078;-68
2022/04/03 11:39:31;;;;;;;1.75;0.90;;;8.90;99.90;;;;;;5067825;28;20137;-67
2022/04/03 11:41:58;;;;;;;4.60;1.20;;;9.00;99.90;;;;;;5067844;28;20049;-68
2022/04/03 11:44:24;;;;;;;10.80;1.27;;;11.00;99.90;;;;;;5051715;28;20056;-68
2022/04/03 11:46:50;;;;;;;5.85;1.25;;;10.20;99.90;;;;;;5050076;28;20064;-69
2022/04/03 11:49:29;;;;;;;5.45;1.23;;;10.90;99.90;;;;;;5051943;28;20363;-67
2022/04/03 11:52:09;;;;;;;2.40;1.45;;;11.40;99.90;;;;;;5070580;28;20093;-67
2022/04/03 11:54:36;;;;;;;4.75;1.15;;;12.00;95.60;;;;;;5067342;28;20090;-68
2022/04/03 11:57:04;;;;;;;3.33;1.20;;;11.70;94.50;;;;;;5073143;28;20044;-68
2022/04/03 11:59:32;;;;;;;;;;;11.40;93.20;;;;;;5069835;28;20047;-68
2022/04/03 12:01:57;;;;;;;4.03;1.20;;;10.70;94.30;;;;;;5067643;28;20301;-67
2022/04/03 12:04:23;;;;;;;3.55;1.33;;;10.10;94.50;;;;;;5052109;28;20040;-68
2022/04/03 12:06:58;;;;;;;3.45;1.45;;;9.60;95.40;;;;;;5056182;28;20051;-67
2022/04/03 12:09:24;;;;;;;4.30;0.90;;;9.50;98.00;;;;;;5070981;28;20474;-67
2022/04/03 12:11:53;;;;;;;3.20;1.13;;;10.30;99.20;;;;;;5069972;28;20050;-67
2022/04/03 12:14:30;;;;;;;1.90;1.00;;;10.80;98.40;;;;;;5067606;28;20067;-66
2022/04/03 12:16:57;;;;;;;1.60;0.90;;;10.80;97.10;;;;;;5074222;28;20048;-68
2022/04/03 12:19:27;;;;;;;3.20;1.00;;;10.60;96.20;;;;;;5039412;28;20044;-68
2022/04/03 12:21:59;;;;;;;4.47;1.10;;;10.20;96.70;;;;;;5067540;28;20036;-67
2022/04/03 12:24:30;;;;;;;7.80;1.52;;;9.90;96.90;;;;;;5032936;28;20045;-67
2022/04/03 12:27:00;;;;;;;3.50;1.00;;;9.70;97.60;;;;;;5021080;28;20052;-67
2022/04/03 12:29:29;;;;;;;6.72;1.08;;;9.50;97.00;;;;;;5070382;28;20112;-67
2022/04/03 12:31:56;;;;;;;3.60;1.15;;;9.40;95.40;;;;;;5050526;28;20145;-68
2022/04/03 12:34:22;;;;;;;3.58;1.23;;;9.20;95.40;;;;;;5067754;28;20057;-67
2022/04/03 12:36:52;;;;;;;3.70;1.17;;;9.00;96.20;;;;;;5052056;28;20103;-67
2022/04/03 12:39:37;;;;;;;3.55;1.20;;;8.80;96.30;;;;;;5040207;28;20051;-67
2022/04/03 12:42:21;;;;;;;8.40;1.38;;;8.60;97.70;;;;;;5035529;28;20044;-68
2022/04/03 12:44:59;;;;;;;3.42;1.17;;;8.50;99.00;;;;;;5061294;28;20040;-68
2022/04/03 12:47:39;;;;;;;3.20;1.10;;;8.80;99.80;;;;;;5059631;28;20052;-68
2022/04/03 12:50:05;;;;;;;4.60;1.10;;;8.90;99.90;;;;;;5065276;28;20087;-67
2022/04/03 12:52:49;;;;;;;3.88;1.27;;;9.80;99.90;;;;;;5050074;28;20052;-68
2022/04/03 13:00:57;;;;;;;3.92;1.10;;;11.80;94.60;;;;;;5061420;28;20049;-66
2022/04/03 13:03:23;;;;;;;3.63;1.20;;;11.70;94.60;;;;;;5070105;28;20040;-68